Terminal Aerodrome Forecast
Issued by NWS Cleveland, OH

Home | Current Version | Previous Version | Text Only | Print | Product List | Glossary Off
Versions: 1 2 3 4 5 6 7 8 9 10 11 12 13

000
FTUS41 KCLE 011731
TAFTOL
TAF
KTOL 011731Z 0118/0218 29010KT P6SM BKN035
     FM012200 33006KT P6SM SCT035
     FM020200 03006KT P6SM SCT025
     FM020900 06008KT 4SM BR BKN025
     FM021400 07010KT P6SM SCT025=

USA.gov is the U.S. government's official web portal to all federal, state and local government web resources and services.